sensor_id;sensor_type;location;lat;lon;timestamp;pressure;altitude;pressure_sealevel;temperature;humidity
28588;BME280;15787;49.662;10.162;2023-07-13T00:01:45;98904.19;;;20.83;69.86
28588;BME280;15787;49.662;10.162;2023-07-13T00:04:23;98900.94;;;20.95;69.04
28588;BME280;15787;49.662;10.162;2023-07-13T00:06:57;98907.44;;;20.64;69.40
28588;BME280;15787;49.662;10.162;2023-07-13T00:09:30;98898.31;;;20.55;70.04
28588;BME280;15787;49.662;10.162;2023-07-13T00:12:04;98913.28;;;20.55;70.85
28588;BME280;15787;49.662;10.162;2023-07-13T00:14:37;98913.53;;;20.57;70.33
28588;BME280;15787;49.662;10.162;2023-07-13T00:17:11;98916.25;;;20.41;71.10
28588;BME280;15787;49.662;10.162;2023-07-13T00:19:44;98919.69;;;20.25;71.34
28588;BME280;15787;49.662;10.162;2023-07-13T00:22:18;98916.06;;;20.24;70.97
28588;BME280;15787;49.662;10.162;2023-07-13T00:24:51;98912.09;;;20.16;70.93
28588;BME280;15787;49.662;10.162;2023-07-13T00:27:25;98901.75;;;20.13;70.99
28588;BME280;15787;49.662;10.162;2023-07-13T00:29:58;98907.69;;;20.15;71.11
28588;BME280;15787;49.662;10.162;2023-07-13T00:32:33;98908.47;;;20.15;70.94
28588;BME280;15787;49.662;10.162;2023-07-13T00:35:07;98900.19;;;20.12;71.36
28588;BME280;15787;49.662;10.162;2023-07-13T00:37:40;98903.25;;;20.08;70.31
28588;BME280;15787;49.662;10.162;2023-07-13T00:40:15;98905.25;;;20.02;70.41
28588;BME280;15787;49.662;10.162;2023-07-13T00:42:51;98896.94;;;19.99;69.67
28588;BME280;15787;49.662;10.162;2023-07-13T00:48:36;98903.41;;;19.99;68.82
28588;BME280;15787;49.662;10.162;2023-07-13T00:51:11;98904.06;;;19.89;68.88
28588;BME280;15787;49.662;10.162;2023-07-13T00:53:45;98908.38;;;19.84;68.17
28588;BME280;15787;49.662;10.162;2023-07-13T00:56:18;98912.81;;;19.91;67.63
28588;BME280;15787;49.662;10.162;2023-07-13T00:58:52;98923.09;;;19.88;67.72
28588;BME280;15787;49.662;10.162;2023-07-13T01:01:27;98920.84;;;19.92;67.29
28588;BME280;15787;49.662;10.162;2023-07-13T01:04:01;98914.84;;;19.85;68.29
28588;BME280;15787;49.662;10.162;2023-07-13T01:06:35;98915.91;;;19.87;67.55
28588;BME280;15787;49.662;10.162;2023-07-13T01:09:08;98922.75;;;19.61;68.51
28588;BME280;15787;49.662;10.162;2023-07-13T01:11:42;98913.44;;;19.54;68.77
28588;BME280;15787;49.662;10.162;2023-07-13T01:14:16;98912.94;;;19.56;69.11
28588;BME280;15787;49.662;10.162;2023-07-13T01:16:49;98912.72;;;19.39;68.83
28588;BME280;15787;49.662;10.162;2023-07-13T01:19:33;98914.53;;;19.42;68.81
28588;BME280;15787;49.662;10.162;2023-07-13T01:22:11;98918.75;;;19.32;68.49
28588;BME280;15787;49.662;10.162;2023-07-13T01:24:46;98919.75;;;19.29;69.09
28588;BME280;15787;49.662;10.162;2023-07-13T01:27:22;98929.00;;;19.44;68.99
28588;BME280;15787;49.662;10.162;2023-07-13T01:29:56;98927.34;;;19.38;70.03
28588;BME280;15787;49.662;10.162;2023-07-13T01:32:35;98929.88;;;19.01;70.54
28588;BME280;15787;49.662;10.162;2023-07-13T01:35:09;98941.50;;;19.03;71.60
28588;BME280;15787;49.662;10.162;2023-07-13T01:37:45;98939.53;;;19.09;72.25
28588;BME280;15787;49.662;10.162;2023-07-13T01:40:19;98944.16;;;18.77;72.59
28588;BME280;15787;49.662;10.162;2023-07-13T01:42:53;98932.94;;;18.83;74.97
28588;BME280;15787;49.662;10.162;2023-07-13T01:45:26;98928.06;;;18.69;73.85
28588;BME280;15787;49.662;10.162;2023-07-13T01:47:59;98938.13;;;18.55;73.68
28588;BME280;15787;49.662;10.162;2023-07-13T01:50:32;98934.34;;;18.58;72.90
28588;BME280;15787;49.662;10.162;2023-07-13T01:53:06;98944.25;;;18.54;73.92
28588;BME280;15787;49.662;10.162;2023-07-13T01:55:39;98949.88;;;18.39;74.85
28588;BME280;15787;49.662;10.162;2023-07-13T01:58:12;98953.38;;;18.19;75.67
28588;BME280;15787;49.662;10.162;2023-07-13T02:00:48;98964.28;;;18.12;75.42
28588;BME280;15787;49.662;10.162;2023-07-13T02:03:21;98957.97;;;17.79;75.33
28588;BME280;15787;49.662;10.162;2023-07-13T02:05:54;98965.41;;;17.67;75.08
28588;BME280;15787;49.662;10.162;2023-07-13T02:08:28;98966.19;;;17.91;74.33
28588;BME280;15787;49.662;10.162;2023-07-13T02:11:03;98957.78;;;17.82;73.84
28588;BME280;15787;49.662;10.162;2023-07-13T02:13:36;98959.59;;;17.71;74.08
28588;BME280;15787;49.662;10.162;2023-07-13T02:16:09;98957.63;;;18.00;73.52
28588;BME280;15787;49.662;10.162;2023-07-13T02:18:43;98973.22;;;17.72;74.53
28588;BME280;15787;49.662;10.162;2023-07-13T02:21:16;98964.19;;;17.83;74.62
28588;BME280;15787;49.662;10.162;2023-07-13T02:23:50;98970.47;;;17.87;76.11
28588;BME280;15787;49.662;10.162;2023-07-13T02:26:24;98968.72;;;17.65;74.45
28588;BME280;15787;49.662;10.162;2023-07-13T02:28:58;98969.13;;;17.73;73.60
28588;BME280;15787;49.662;10.162;2023-07-13T02:31:31;98963.91;;;17.81;73.58
28588;BME280;15787;49.662;10.162;2023-07-13T02:34:04;98968.56;;;17.69;73.56
28588;BME280;15787;49.662;10.162;2023-07-13T02:36:37;98968.06;;;17.71;74.45
28588;BME280;15787;49.662;10.162;2023-07-13T02:39:13;98977.16;;;17.42;74.07
28588;BME280;15787;49.662;10.162;2023-07-13T02:41:46;98967.94;;;17.65;74.21
28588;BME280;15787;49.662;10.162;2023-07-13T02:44:19;98976.19;;;17.45;74.39
28588;BME280;15787;49.662;10.162;2023-07-13T02:46:52;98975.41;;;17.44;76.05
28588;BME280;15787;49.662;10.162;2023-07-13T02:49:25;98972.88;;;17.55;75.45
28588;BME280;15787;49.662;10.162;2023-07-13T02:51:58;98971.78;;;17.53;75.77
28588;BME280;15787;49.662;10.162;2023-07-13T02:54:32;98977.69;;;17.31;74.93
28588;BME280;15787;49.662;10.162;2023-07-13T02:57:06;98970.84;;;17.47;76.00
28588;BME280;15787;49.662;10.162;2023-07-13T02:59:39;98975.81;;;17.28;76.47
28588;BME280;15787;49.662;10.162;2023-07-13T03:02:12;98971.63;;;17.24;77.37
28588;BME280;15787;49.662;10.162;2023-07-13T03:04:45;98974.53;;;16.96;76.69
28588;BME280;15787;49.662;10.162;2023-07-13T03:07:18;98973.81;;;17.20;76.91
28588;BME280;15787;49.662;10.162;2023-07-13T03:09:57;98981.34;;;17.23;76.37
28588;BME280;15787;49.662;10.162;2023-07-13T03:12:39;98980.19;;;16.96;77.11
28588;BME280;15787;49.662;10.162;2023-07-13T03:15:19;98981.56;;;17.10;76.17
28588;BME280;15787;49.662;10.162;2023-07-13T03:17:53;98982.50;;;17.07;76.68
28588;BME280;15787;49.662;10.162;2023-07-13T03:20:26;98990.00;;;17.10;76.45
28588;BME280;15787;49.662;10.162;2023-07-13T03:22:59;98995.09;;;16.97;76.92
28588;BME280;15787;49.662;10.162;2023-07-13T03:25:33;99003.03;;;17.08;76.20
28588;BME280;15787;49.662;10.162;2023-07-13T03:28:07;99000.34;;;17.13;76.51
28588;BME280;15787;49.662;10.162;2023-07-13T03:30:40;99001.97;;;16.96;76.86
28588;BME280;15787;49.662;10.162;2023-07-13T03:33:13;99018.28;;;16.92;77.70
28588;BME280;15787;49.662;10.162;2023-07-13T03:35:46;99022.38;;;16.82;77.26
28588;BME280;15787;49.662;10.162;2023-07-13T03:38:19;99018.31;;;16.83;78.19
28588;BME280;15787;49.662;10.162;2023-07-13T03:40:54;99012.06;;;16.79;77.73
28588;BME280;15787;49.662;10.162;2023-07-13T03:43:27;99020.03;;;16.89;77.59
28588;BME280;15787;49.662;10.162;2023-07-13T03:46:03;99030.38;;;16.83;76.75
28588;BME280;15787;49.662;10.162;2023-07-13T03:48:37;99031.94;;;16.84;76.76
28588;BME280;15787;49.662;10.162;2023-07-13T03:51:17;99039.03;;;16.53;77.71
28588;BME280;15787;49.662;10.162;2023-07-13T03:53:53;99047.50;;;16.62;76.86
28588;BME280;15787;49.662;10.162;2023-07-13T03:56:31;99053.59;;;16.60;77.49
28588;BME280;15787;49.662;10.162;2023-07-13T03:59:06;99055.63;;;16.78;76.58
28588;BME280;15787;49.662;10.162;2023-07-13T04:01:39;99051.97;;;16.86;75.65
28588;BME280;15787;49.662;10.162;2023-07-13T04:04:12;99057.66;;;16.77;76.69
28588;BME280;15787;49.662;10.162;2023-07-13T04:06:47;99073.81;;;16.68;77.16
28588;BME280;15787;49.662;10.162;2023-07-13T04:09:20;99063.44;;;16.83;77.65
28588;BME280;15787;49.662;10.162;2023-07-13T04:11:55;99057.03;;;16.64;77.64
28588;BME280;15787;49.662;10.162;2023-07-13T04:14:28;99066.38;;;16.88;77.52
28588;BME280;15787;49.662;10.162;2023-07-13T04:17:01;99065.34;;;16.68;78.16
28588;BME280;15787;49.662;10.162;2023-07-13T04:19:34;99065.97;;;16.44;77.60
28588;BME280;15787;49.662;10.162;2023-07-13T04:22:07;99068.91;;;16.86;76.18
28588;BME280;15787;49.662;10.162;2023-07-13T04:24:40;99074.09;;;16.88;76.66
28588;BME280;15787;49.662;10.162;2023-07-13T04:27:15;99071.13;;;16.73;76.88
28588;BME280;15787;49.662;10.162;2023-07-13T04:29:47;99073.56;;;16.98;75.81
28588;BME280;15787;49.662;10.162;2023-07-13T04:32:20;99079.53;;;16.91;76.10
28588;BME280;15787;49.662;10.162;2023-07-13T04:34:53;99084.72;;;16.93;76.62
28588;BME280;15787;49.662;10.162;2023-07-13T04:37:27;99082.38;;;17.00;75.71
28588;BME280;15787;49.662;10.162;2023-07-13T04:40:01;99080.09;;;17.23;75.19
28588;BME280;15787;49.662;10.162;2023-07-13T04:42:36;99090.25;;;17.29;76.04
28588;BME280;15787;49.662;10.162;2023-07-13T04:45:09;99092.31;;;17.29;75.47
28588;BME280;15787;49.662;10.162;2023-07-13T04:47:42;99086.72;;;17.61;73.50
28588;BME280;15787;49.662;10.162;2023-07-13T04:50:16;99088.28;;;17.62;74.55
28588;BME280;15787;49.662;10.162;2023-07-13T04:52:52;99095.72;;;17.75;73.81
28588;BME280;15787;49.662;10.162;2023-07-13T04:55:26;99105.19;;;17.72;73.48
28588;BME280;15787;49.662;10.162;2023-07-13T04:58:04;99112.88;;;17.71;73.07
28588;BME280;15787;49.662;10.162;2023-07-13T05:00:37;99113.13;;;18.06;72.38
28588;BME280;15787;49.662;10.162;2023-07-13T05:03:10;99119.75;;;18.03;72.70
28588;BME280;15787;49.662;10.162;2023-07-13T05:05:43;99122.53;;;18.12;72.70
28588;BME280;15787;49.662;10.162;2023-07-13T05:08:16;99127.09;;;18.09;72.40
28588;BME280;15787;49.662;10.162;2023-07-13T05:10:49;99121.25;;;18.37;72.43
28588;BME280;15787;49.662;10.162;2023-07-13T05:13:23;99122.38;;;18.77;72.08
28588;BME280;15787;49.662;10.162;2023-07-13T05:16:02;99121.66;;;18.53;71.67
28588;BME280;15787;49.662;10.162;2023-07-13T05:18:36;99116.97;;;18.65;72.13
28588;BME280;15787;49.662;10.162;2023-07-13T05:21:12;99125.09;;;18.72;70.89
28588;BME280;15787;49.662;10.162;2023-07-13T05:23:47;99124.53;;;18.82;71.55
28588;BME280;15787;49.662;10.162;2023-07-13T05:26:20;99125.56;;;18.56;71.55
28588;BME280;15787;49.662;10.162;2023-07-13T05:28:54;99126.13;;;18.60;71.75
28588;BME280;15787;49.662;10.162;2023-07-13T05:31:27;99126.38;;;18.85;70.92
28588;BME280;15787;49.662;10.162;2023-07-13T05:34:00;99131.56;;;18.49;71.30
28588;BME280;15787;49.662;10.162;2023-07-13T05:36:33;99118.97;;;18.73;70.73
28588;BME280;15787;49.662;10.162;2023-07-13T05:39:06;99121.66;;;18.44;71.55
28588;BME280;15787;49.662;10.162;2023-07-13T05:41:39;99124.91;;;18.75;71.28
28588;BME280;15787;49.662;10.162;2023-07-13T05:44:13;99122.75;;;18.70;72.27
28588;BME280;15787;49.662;10.162;2023-07-13T05:46:46;99136.66;;;18.36;72.22
28588;BME280;15787;49.662;10.162;2023-07-13T05:49:19;99136.69;;;18.74;71.43
28588;BME280;15787;49.662;10.162;2023-07-13T05:51:52;99135.75;;;18.91;71.50
28588;BME280;15787;49.662;10.162;2023-07-13T05:54:26;99137.31;;;18.92;71.41
28588;BME280;15787;49.662;10.162;2023-07-13T05:56:59;99138.28;;;18.89;70.34
28588;BME280;15787;49.662;10.162;2023-07-13T05:59:33;99140.72;;;18.82;71.00
28588;BME280;15787;49.662;10.162;2023-07-13T06:02:08;99132.34;;;18.87;71.01
28588;BME280;15787;49.662;10.162;2023-07-13T06:04:41;99136.47;;;19.16;70.89
28588;BME280;15787;49.662;10.162;2023-07-13T06:07:14;99137.53;;;19.04;69.99
28588;BME280;15787;49.662;10.162;2023-07-13T06:09:47;99148.28;;;19.14;69.01
28588;BME280;15787;49.662;10.162;2023-07-13T06:12:20;99145.19;;;19.41;68.96
28588;BME280;15787;49.662;10.162;2023-07-13T06:14:54;99145.97;;;19.57;68.14
28588;BME280;15787;49.662;10.162;2023-07-13T06:17:27;99148.75;;;19.71;67.29
28588;BME280;15787;49.662;10.162;2023-07-13T06:20:00;99145.50;;;19.93;66.30
28588;BME280;15787;49.662;10.162;2023-07-13T06:22:33;99153.50;;;19.94;65.51
28588;BME280;15787;49.662;10.162;2023-07-13T06:25:08;99149.47;;;20.01;64.70
28588;BME280;15787;49.662;10.162;2023-07-13T06:27:41;99148.47;;;20.18;64.60
28588;BME280;15787;49.662;10.162;2023-07-13T06:30:15;99153.78;;;19.96;63.14
28588;BME280;15787;49.662;10.162;2023-07-13T06:32:49;99150.41;;;20.27;63.59
28588;BME280;15787;49.662;10.162;2023-07-13T06:35:22;99151.72;;;20.46;62.87
28588;BME280;15787;49.662;10.162;2023-07-13T06:37:55;99159.44;;;20.46;63.01
28588;BME280;15787;49.662;10.162;2023-07-13T06:40:28;99160.69;;;20.45;62.29
28588;BME280;15787;49.662;10.162;2023-07-13T06:43:02;99153.53;;;20.49;62.66
28588;BME280;15787;49.662;10.162;2023-07-13T06:45:41;99162.03;;;20.29;62.71
28588;BME280;15787;49.662;10.162;2023-07-13T06:48:14;99168.19;;;20.28;62.34
28588;BME280;15787;49.662;10.162;2023-07-13T06:50:48;99162.69;;;20.39;62.58
28588;BME280;15787;49.662;10.162;2023-07-13T06:53:21;99163.88;;;20.32;61.80
28588;BME280;15787;49.662;10.162;2023-07-13T06:55:55;99169.34;;;20.36;61.87
28588;BME280;15787;49.662;10.162;2023-07-13T06:58:28;99177.84;;;20.36;61.65
28588;BME280;15787;49.662;10.162;2023-07-13T07:01:02;99176.88;;;20.79;60.83
28588;BME280;15787;49.662;10.162;2023-07-13T07:03:38;99179.28;;;20.66;60.26
28588;BME280;15787;49.662;10.162;2023-07-13T07:06:13;99175.09;;;20.82;59.71
28588;BME280;15787;49.662;10.162;2023-07-13T07:08:47;99181.22;;;21.00;59.49
28588;BME280;15787;49.662;10.162;2023-07-13T07:11:22;99190.19;;;20.93;59.37
28588;BME280;15787;49.662;10.162;2023-07-13T07:13:55;99192.19;;;20.87;58.84
28588;BME280;15787;49.662;10.162;2023-07-13T07:16:30;99195.81;;;20.67;59.74
28588;BME280;15787;49.662;10.162;2023-07-13T07:19:03;99192.03;;;20.96;59.64
28588;BME280;15787;49.662;10.162;2023-07-13T07:21:35;99198.66;;;21.08;59.02
28588;BME280;15787;49.662;10.162;2023-07-13T07:24:08;99205.78;;;21.23;58.96
28588;BME280;15787;49.662;10.162;2023-07-13T07:26:41;99204.84;;;21.06;58.73
28588;BME280;15787;49.662;10.162;2023-07-13T07:29:17;99194.88;;;21.42;57.86
28588;BME280;15787;49.662;10.162;2023-07-13T07:31:54;99205.38;;;21.30;58.16
28588;BME280;15787;49.662;10.162;2023-07-13T07:34:30;99204.75;;;21.47;58.02
28588;BME280;15787;49.662;10.162;2023-07-13T07:37:03;99200.75;;;21.90;56.88
28588;BME280;15787;49.662;10.162;2023-07-13T07:39:39;99204.91;;;21.89;55.91
28588;BME280;15787;49.662;10.162;2023-07-13T07:42:17;99204.50;;;22.01;55.44
28588;BME280;15787;49.662;10.162;2023-07-13T07:44:50;99201.88;;;21.98;55.77
28588;BME280;15787;49.662;10.162;2023-07-13T07:47:24;99199.13;;;22.51;54.79
28588;BME280;15787;49.662;10.162;2023-07-13T07:49:57;99200.97;;;22.54;53.67
28588;BME280;15787;49.662;10.162;2023-07-13T07:52:30;99210.91;;;22.33;52.63
28588;BME280;15787;49.662;10.162;2023-07-13T07:55:04;99209.13;;;22.36;52.38
28588;BME280;15787;49.662;10.162;2023-07-13T07:57:40;99201.38;;;22.84;51.85
28588;BME280;15787;49.662;10.162;2023-07-13T08:00:16;99203.53;;;23.06;51.01
28588;BME280;15787;49.662;10.162;2023-07-13T08:02:53;99212.63;;;23.10;50.63
28588;BME280;15787;49.662;10.162;2023-07-13T08:05:46;99207.50;;;23.31;50.44
28588;BME280;15787;49.662;10.162;2023-07-13T08:08:39;99204.16;;;23.38;49.78
28588;BME280;15787;49.662;10.162;2023-07-13T08:11:12;99212.66;;;23.32;48.14
28588;BME280;15787;49.662;10.162;2023-07-13T08:13:49;99212.97;;;23.40;48.65
28588;BME280;15787;49.662;10.162;2023-07-13T08:16:26;99213.03;;;23.78;49.54
28588;BME280;15787;49.662;10.162;2023-07-13T08:19:01;99209.91;;;23.87;48.61
28588;BME280;15787;49.662;10.162;2023-07-13T08:21:33;99207.59;;;24.19;47.99
28588;BME280;15787;49.662;10.162;2023-07-13T08:24:07;99200.34;;;24.18;47.64
28588;BME280;15787;49.662;10.162;2023-07-13T08:26:40;99211.19;;;24.42;46.67
28588;BME280;15787;49.662;10.162;2023-07-13T08:29:13;99207.34;;;24.23;47.35
28588;BME280;15787;49.662;10.162;2023-07-13T08:31:46;99209.16;;;24.15;47.09
28588;BME280;15787;49.662;10.162;2023-07-13T08:34:20;99211.44;;;24.55;47.37
28588;BME280;15787;49.662;10.162;2023-07-13T08:36:53;99210.22;;;24.23;47.41
28588;BME280;15787;49.662;10.162;2023-07-13T08:39:26;99206.22;;;24.65;46.67
28588;BME280;15787;49.662;10.162;2023-07-13T08:42:03;99206.47;;;24.61;46.04
28588;BME280;15787;49.662;10.162;2023-07-13T08:44:45;99206.03;;;24.29;45.58
28588;BME280;15787;49.662;10.162;2023-07-13T08:47:22;99210.16;;;24.50;45.73
28588;BME280;15787;49.662;10.162;2023-07-13T08:49:57;99205.63;;;24.88;45.16
28588;BME280;15787;49.662;10.162;2023-07-13T08:52:35;99200.47;;;24.76;44.50
28588;BME280;15787;49.662;10.162;2023-07-13T08:55:13;99195.59;;;25.23;45.26
28588;BME280;15787;49.662;10.162;2023-07-13T08:57:54;99203.03;;;24.90;44.84
28588;BME280;15787;49.662;10.162;2023-07-13T09:00:36;99205.50;;;25.22;45.67
28588;BME280;15787;49.662;10.162;2023-07-13T09:03:18;99204.53;;;25.54;44.70
28588;BME280;15787;49.662;10.162;2023-07-13T09:05:57;99196.97;;;25.57;45.00
28588;BME280;15787;49.662;10.162;2023-07-13T09:08:42;99195.59;;;25.69;44.61
28588;BME280;15787;49.662;10.162;2023-07-13T09:11:32;99193.94;;;26.09;44.50
28588;BME280;15787;49.662;10.162;2023-07-13T09:14:33;99204.03;;;25.50;44.40
28588;BME280;15787;49.662;10.162;2023-07-13T09:17:13;99190.88;;;25.31;44.68
28588;BME280;15787;49.662;10.162;2023-07-13T09:19:51;99198.19;;;26.02;44.30
28588;BME280;15787;49.662;10.162;2023-07-13T09:22:28;99180.34;;;26.20;44.03
28588;BME280;15787;49.662;10.162;2023-07-13T09:25:11;99193.69;;;26.12;44.14
28588;BME280;15787;49.662;10.162;2023-07-13T09:27:45;99192.25;;;25.95;44.03
28588;BME280;15787;49.662;10.162;2023-07-13T09:30:24;99192.34;;;25.84;44.32
28588;BME280;15787;49.662;10.162;2023-07-13T09:33:00;99198.31;;;25.50;44.46
28588;BME280;15787;49.662;10.162;2023-07-13T09:35:34;99200.56;;;25.17;45.35
28588;BME280;15787;49.662;10.162;2023-07-13T09:38:13;99199.63;;;24.92;46.21
28588;BME280;15787;49.662;10.162;2023-07-13T09:40:57;99190.88;;;25.31;45.38
28588;BME280;15787;49.662;10.162;2023-07-13T09:43:32;99188.53;;;26.05;44.15
28588;BME280;15787;49.662;10.162;2023-07-13T09:46:20;99197.34;;;26.37;44.45
28588;BME280;15787;49.662;10.162;2023-07-13T09:48:55;99195.44;;;26.21;43.24
28588;BME280;15787;49.662;10.162;2023-07-13T09:51:28;99183.50;;;26.17;43.65
28588;BME280;15787;49.662;10.162;2023-07-13T09:54:03;99187.69;;;26.16;43.23
28588;BME280;15787;49.662;10.162;2023-07-13T09:56:35;99192.41;;;26.62;43.97
28588;BME280;15787;49.662;10.162;2023-07-13T09:59:19;99193.97;;;27.24;43.35
28588;BME280;15787;49.662;10.162;2023-07-13T10:01:52;99197.28;;;25.48;43.71
28588;BME280;15787;49.662;10.162;2023-07-13T10:04:30;99195.06;;;26.30;44.08
28588;BME280;15787;49.662;10.162;2023-07-13T10:07:08;99205.38;;;25.79;43.06
28588;BME280;15787;49.662;10.162;2023-07-13T10:10:01;99196.69;;;25.60;43.95
28588;BME280;15787;49.662;10.162;2023-07-13T10:12:38;99198.00;;;25.59;44.50
28588;BME280;15787;49.662;10.162;2023-07-13T10:15:15;99195.47;;;25.86;44.89
28588;BME280;15787;49.662;10.162;2023-07-13T10:17:55;99188.75;;;26.07;44.41
28588;BME280;15787;49.662;10.162;2023-07-13T10:20:30;99185.66;;;26.05;44.81
28588;BME280;15787;49.662;10.162;2023-07-13T10:23:05;99180.84;;;26.49;42.84
28588;BME280;15787;49.662;10.162;2023-07-13T10:25:46;99188.41;;;26.46;42.95
28588;BME280;15787;49.662;10.162;2023-07-13T10:28:25;99186.78;;;26.51;42.86
28588;BME280;15787;49.662;10.162;2023-07-13T10:31:00;99186.38;;;27.27;42.02
28588;BME280;15787;49.662;10.162;2023-07-13T10:33:34;99201.44;;;25.88;42.24
28588;BME280;15787;49.662;10.162;2023-07-13T10:36:14;99197.97;;;25.65;43.06
28588;BME280;15787;49.662;10.162;2023-07-13T10:38:51;99188.53;;;26.05;43.14
28588;BME280;15787;49.662;10.162;2023-07-13T10:41:28;99184.84;;;26.10;43.56
28588;BME280;15787;49.662;10.162;2023-07-13T10:44:03;99183.25;;;26.15;43.17
28588;BME280;15787;49.662;10.162;2023-07-13T10:46:37;99184.25;;;25.88;43.97
28588;BME280;15787;49.662;10.162;2023-07-13T10:49:11;99201.44;;;25.88;43.73
28588;BME280;15787;49.662;10.162;2023-07-13T10:51:44;99187.56;;;25.97;44.25
28588;BME280;15787;49.662;10.162;2023-07-13T10:54:20;99196.50;;;25.88;43.96
28588;BME280;15787;49.662;10.162;2023-07-13T10:57:15;99197.66;;;26.82;42.42
28588;BME280;15787;49.662;10.162;2023-07-13T11:00:13;99190.81;;;26.12;43.36
28588;BME280;15787;49.662;10.162;2023-07-13T11:02:56;99193.44;;;27.07;42.75
28588;BME280;15787;49.662;10.162;2023-07-13T11:05:32;99186.44;;;26.35;42.78
28588;BME280;15787;49.662;10.162;2023-07-13T11:08:16;99183.41;;;25.98;43.51
28588;BME280;15787;49.662;10.162;2023-07-13T11:10:53;99187.88;;;26.72;43.37
28588;BME280;15787;49.662;10.162;2023-07-13T11:13:58;99193.44;;;26.10;43.43
28588;BME280;15787;49.662;10.162;2023-07-13T11:16:37;99188.59;;;26.54;42.79
28588;BME280;15787;49.662;10.162;2023-07-13T11:22:25;99190.59;;;25.75;43.32
28588;BME280;15787;49.662;10.162;2023-07-13T11:25:01;99186.59;;;25.54;42.77
28588;BME280;15787;49.662;10.162;2023-07-13T11:27:39;99179.78;;;25.62;42.18
28588;BME280;15787;49.662;10.162;2023-07-13T11:30:25;99185.53;;;25.92;42.50
28588;BME280;15787;49.662;10.162;2023-07-13T11:33:10;99183.53;;;25.46;43.22
28588;BME280;15787;49.662;10.162;2023-07-13T11:35:51;99178.91;;;25.73;43.46
28588;BME280;15787;49.662;10.162;2023-07-13T11:38:28;99171.19;;;26.52;43.27
28588;BME280;15787;49.662;10.162;2023-07-13T11:41:07;99178.19;;;26.26;42.19
28588;BME280;15787;49.662;10.162;2023-07-13T11:43:49;99171.47;;;26.48;42.16
28588;BME280;15787;49.662;10.162;2023-07-13T11:46:27;99177.25;;;26.18;43.08
28588;BME280;15787;49.662;10.162;2023-07-13T11:49:00;99176.06;;;26.32;42.26
28588;BME280;15787;49.662;10.162;2023-07-13T11:51:35;99173.38;;;26.16;42.09
28588;BME280;15787;49.662;10.162;2023-07-13T11:54:19;99176.69;;;25.90;42.28
28588;BME280;15787;49.662;10.162;2023-07-13T11:56:55;99173.66;;;26.36;41.99
28588;BME280;15787;49.662;10.162;2023-07-13T11:59:32;99171.13;;;26.76;41.15
28588;BME280;15787;49.662;10.162;2023-07-13T12:02:16;99173.38;;;27.07;42.10
28588;BME280;15787;49.662;10.162;2023-07-13T12:04:50;99175.81;;;26.55;42.25
28588;BME280;15787;49.662;10.162;2023-07-13T12:07:24;99180.94;;;26.13;42.65
28588;BME280;15787;49.662;10.162;2023-07-13T12:10:00;99182.69;;;25.87;43.31
28588;BME280;15787;49.662;10.162;2023-07-13T12:12:33;99176.84;;;26.03;42.94
28588;BME280;15787;49.662;10.162;2023-07-13T12:15:07;99180.88;;;26.19;43.24
28588;BME280;15787;49.662;10.162;2023-07-13T12:17:41;99182.09;;;26.53;42.03
28588;BME280;15787;49.662;10.162;2023-07-13T12:20:21;99181.31;;;26.77;41.66
28588;BME280;15787;49.662;10.162;2023-07-13T12:22:56;99188.75;;;26.37;42.09
28588;BME280;15787;49.662;10.162;2023-07-13T12:25:29;99178.56;;;26.66;42.41
28588;BME280;15787;49.662;10.162;2023-07-13T12:28:20;99191.63;;;26.37;42.05
28588;BME280;15787;49.662;10.162;2023-07-13T12:30:57;99185.31;;;26.44;41.74
28588;BME280;15787;49.662;10.162;2023-07-13T12:33:33;99189.31;;;26.35;42.22
28588;BME280;15787;49.662;10.162;2023-07-13T12:36:12;99185.00;;;27.15;41.62
28588;BME280;15787;49.662;10.162;2023-07-13T12:38:45;99186.63;;;27.10;41.86
28588;BME280;15787;49.662;10.162;2023-07-13T12:41:19;99189.47;;;26.91;nan
28588;BME280;15787;49.662;10.162;2023-07-13T12:43:52;99192.00;;;26.95;41.39
28588;BME280;15787;49.662;10.162;2023-07-13T12:46:26;99188.44;;;26.65;42.04
28588;BME280;15787;49.662;10.162;2023-07-13T12:49:05;99195.50;;;26.15;42.51
28588;BME280;15787;49.662;10.162;2023-07-13T12:51:49;99188.28;;;27.43;40.95
28588;BME280;15787;49.662;10.162;2023-07-13T12:54:23;99191.91;;;27.43;41.19
28588;BME280;15787;49.662;10.162;2023-07-13T12:56:57;99201.41;;;27.14;41.38
28588;BME280;15787;49.662;10.162;2023-07-13T12:59:32;99200.53;;;27.01;42.08
28588;BME280;15787;49.662;10.162;2023-07-13T13:02:22;99196.06;;;27.05;41.77
28588;BME280;15787;49.662;10.162;2023-07-13T13:05:00;99198.41;;;27.07;41.33
28588;BME280;15787;49.662;10.162;2023-07-13T13:07:35;99198.78;;;27.72;41.58
28588;BME280;15787;49.662;10.162;2023-07-13T13:10:11;99200.97;;;27.10;41.23
28588;BME280;15787;49.662;10.162;2023-07-13T13:12:54;99202.63;;;26.81;41.61
28588;BME280;15787;49.662;10.162;2023-07-13T13:15:27;99189.56;;;27.23;41.60
28588;BME280;15787;49.662;10.162;2023-07-13T13:18:01;99199.66;;;27.48;41.42
28588;BME280;15787;49.662;10.162;2023-07-13T13:20:36;99201.97;;;27.31;41.61
28588;BME280;15787;49.662;10.162;2023-07-13T13:23:11;99199.91;;;28.01;40.91
28588;BME280;15787;49.662;10.162;2023-07-13T13:25:45;99186.97;;;28.65;40.00
28588;BME280;15787;49.662;10.162;2023-07-13T13:28:20;99198.03;;;28.03;40.01
28588;BME280;15787;49.662;10.162;2023-07-13T13:30:53;99206.13;;;27.99;40.08
28588;BME280;15787;49.662;10.162;2023-07-13T13:33:26;99211.91;;;27.49;40.66
28588;BME280;15787;49.662;10.162;2023-07-13T13:36:01;99209.94;;;28.39;39.55
28588;BME280;15787;49.662;10.162;2023-07-13T13:38:34;99200.25;;;28.95;39.17
28588;BME280;15787;49.662;10.162;2023-07-13T13:41:09;99185.84;;;29.08;38.85